Time;durP1;ratioP1;P1;durP2;ratioP2;P2;SDS_P1;SDS_P2;PMS_P1;PMS_P2;Temp;Humidity;BMP_temperature;BMP_pressure;BME280_temperature;BME280_humidity;BME280_pressure;Samples;Min_cycle;Max_cycle;Signal;HPM_P1;HPM_P2
2022/10/15 00:01:11;;;;;;;1.92;1.30;;;;;;;20.57;100.00;95900.59;4964397;28;20163;-39
2022/10/15 00:03:41;;;;;;;3.70;1.23;;;;;;;20.91;100.00;95901.06;4958429;28;20171;-49
2022/10/15 00:06:11;;;;;;;5.50;1.40;;;;;;;20.70;100.00;95896.16;4967303;28;20086;-43
2022/10/15 00:08:40;;;;;;;2.08;1.48;;;;;;;20.94;100.00;95895.28;4963655;28;20722;-42
2022/10/15 00:11:10;;;;;;;3.80;1.60;;;;;;;20.58;100.00;95888.03;4966314;28;20482;-43
2022/10/15 00:13:38;;;;;;;1.65;1.30;;;;;;;21.07;100.00;95894.31;4965649;28;20109;-42
2022/10/15 00:16:08;;;;;;;3.10;1.40;;;;;;;20.87;100.00;95891.84;4965492;28;20097;-43
2022/10/15 00:18:38;;;;;;;2.38;1.27;;;;;;;20.29;100.00;95893.00;4963892;28;20093;-45
2022/10/15 00:21:07;;;;;;;3.97;1.30;;;;;;;20.16;100.00;95887.75;4962360;28;20088;-41
2022/10/15 00:23:36;;;;;;;2.05;1.30;;;;;;;20.94;100.00;95886.41;4966279;28;20086;-41
2022/10/15 00:26:06;;;;;;;3.90;1.10;;;;;;;21.06;100.00;95880.09;4966131;28;20078;-42
2022/10/15 00:28:34;;;;;;;;;;;;;;;20.34;100.00;95877.09;4965978;28;20097;-41
2022/10/15 00:31:06;;;;;;;1.98;1.17;;;;;;;21.06;100.00;95876.59;4957740;28;19950;-41
2022/10/15 00:33:34;;;;;;;2.70;1.10;;;;;;;20.92;100.00;95864.38;4964401;28;20071;-41
2022/10/15 00:36:07;;;;;;;3.28;1.20;;;;;;;20.70;100.00;95872.03;4966222;28;20088;-41
2022/10/15 00:38:36;;;;;;;2.67;1.20;;;;;;;20.98;100.00;95872.34;4967094;28;20086;-40
2022/10/15 00:41:07;;;;;;;2.67;1.08;;;;;;;20.21;100.00;95863.03;4967054;28;20079;-39
2022/10/15 00:43:40;;;;;;;3.05;1.30;;;;;;;20.81;100.00;95856.03;4966724;28;20081;-39
2022/10/15 00:46:17;;;;;;;1.35;1.10;;;;;;;20.75;100.00;95850.75;4963730;28;20101;-48
2022/10/15 00:48:48;;;;;;;2.97;1.20;;;;;;;20.46;100.00;95857.63;4969989;28;20082;-41
2022/10/15 00:51:19;;;;;;;2.45;1.10;;;;;;;21.09;100.00;95843.94;4969613;28;20560;-43
2022/10/15 00:53:48;;;;;;;1.60;1.20;;;;;;;21.10;100.00;95842.94;4970395;28;20078;-39
2022/10/15 00:56:18;;;;;;;2.53;1.15;;;;;;;20.76;100.00;95834.47;4968084;28;20450;-44
2022/10/15 00:58:46;;;;;;;3.28;1.02;;;;;;;20.89;100.00;95830.81;4970473;28;20082;-43
2022/10/15 01:01:15;;;;;;;1.20;1.10;;;;;;;21.24;100.00;95827.47;4964642;28;20101;-41
2022/10/15 01:03:43;;;;;;;2.40;1.13;;;;;;;21.42;100.00;95815.91;4969862;28;20070;-40
2022/10/15 01:06:11;;;;;;;2.92;1.23;;;;;;;20.11;100.00;95815.31;4969868;28;20086;-40
2022/10/15 01:08:41;;;;;;;2.22;0.98;;;;;;;19.67;100.00;95812.59;4969814;28;20070;-41
2022/10/15 01:11:19;;;;;;;3.03;1.20;;;;;;;20.27;100.00;95809.41;4970750;28;20095;-40
2022/10/15 01:13:55;;;;;;;2.17;1.15;;;;;;;20.86;100.00;95807.97;4968634;28;20065;-40
2022/10/15 01:16:27;;;;;;;2.13;1.10;;;;;;;21.38;100.00;95812.88;4967412;28;20482;-40
2022/10/15 01:19:00;;;;;;;1.33;1.05;;;;;;;20.61;100.00;95815.25;4969199;28;20466;-40
2022/10/15 01:21:32;;;;;;;1.83;1.08;;;;;;;21.33;100.00;95792.06;4969412;28;20082;-44
2022/10/15 01:24:39;;;;;;;1.80;1.08;;;;;;;21.49;100.00;95795.97;4969094;28;20062;-38
2022/10/15 01:27:28;;;;;;;2.15;1.20;;;;;;;21.37;100.00;95791.63;4968368;28;20082;-40
2022/10/15 01:30:13;;;;;;;3.40;1.45;;;;;;;21.22;100.00;95797.38;4967451;28;20082;-40
2022/10/15 01:32:48;;;;;;;2.42;1.60;;;;;;;20.98;100.00;95799.97;4969222;28;20078;-40
2022/10/15 01:35:22;;;;;;;3.28;1.80;;;;;;;21.02;100.00;95806.50;4968388;28;20116;-44
2022/10/15 01:37:54;;;;;;;4.22;1.90;;;;;;;20.73;100.00;95800.06;4970330;28;20150;-40
2022/10/15 01:40:27;;;;;;;3.42;1.90;;;;;;;20.89;100.00;95795.13;4966795;28;20066;-41
2022/10/15 01:42:58;;;;;;;3.72;2.00;;;;;;;20.81;100.00;95790.91;4968219;28;20086;-46
2022/10/15 01:45:32;;;;;;;3.63;2.00;;;;;;;20.59;100.00;95785.19;4968367;28;20043;-43
2022/10/15 01:48:03;;;;;;;3.70;1.85;;;;;;;21.19;100.00;95781.75;4966992;28;20066;-40
2022/10/15 01:50:33;;;;;;;2.45;1.90;;;;;;;20.54;100.00;95785.88;4968883;28;20102;-42
2022/10/15 01:53:03;;;;;;;3.70;1.50;;;;;;;20.29;100.00;95772.50;4969132;28;20077;-38
2022/10/15 01:55:31;;;;;;;1.38;1.13;;;;;;;20.71;100.00;95778.03;4967840;28;20082;-42
2022/10/15 01:58:00;;;;;;;1.02;0.93;;;;;;;20.43;100.00;95777.72;4966788;28;20062;-41
2022/10/15 02:00:30;;;;;;;2.35;1.20;;;;;;;21.01;100.00;95771.88;4967797;28;20078;-40
2022/10/15 02:02:59;;;;;;;3.03;1.20;;;;;;;20.73;100.00;95775.97;4969783;28;20078;-43
2022/10/15 02:05:31;;;;;;;1.67;1.15;;;;;;;20.87;100.00;95773.94;4967356;28;20526;-40
2022/10/15 02:08:06;;;;;;;1.92;1.20;;;;;;;20.93;100.00;95770.34;4967375;28;20074;-41
2022/10/15 02:10:42;;;;;;;2.05;1.08;;;;;;;20.62;100.00;95774.84;4968026;28;20082;-41
2022/10/15 02:13:14;;;;;;;4.60;1.20;;;;;;;20.77;100.00;95765.59;4967965;28;20086;-42
2022/10/15 02:15:48;;;;;;;3.50;1.20;;;;;;;20.78;100.00;95764.56;4966885;28;20093;-41
2022/10/15 02:18:19;;;;;;;1.77;1.10;;;;;;;20.65;100.00;95762.03;4966899;28;20639;-44
2022/10/15 02:20:56;;;;;;;1.45;1.17;;;;;;;20.56;100.00;95765.03;4968484;28;20074;-42
2022/10/15 02:23:27;;;;;;;1.23;0.90;;;;;;;21.18;100.00;95753.31;4968159;28;20086;-45
2022/10/15 02:25:56;;;;;;;3.17;1.20;;;;;;;20.33;100.00;95754.13;4966486;28;20082;-40
2022/10/15 02:28:25;;;;;;;1.60;1.08;;;;;;;20.52;100.00;95753.13;4966792;28;20089;-41
2022/10/15 02:30:57;;;;;;;2.30;0.98;;;;;;;20.58;100.00;95752.25;4968591;28;20521;-43
2022/10/15 02:33:26;;;;;;;1.85;0.93;;;;;;;20.82;100.00;95747.81;4966653;28;20086;-39
2022/10/15 02:35:55;;;;;;;1.63;1.00;;;;;;;20.20;100.00;95744.41;4968830;28;20089;-47
2022/10/15 02:38:24;;;;;;;1.23;0.95;;;;;;;20.08;100.00;95749.66;4962918;28;20081;-42
2022/10/15 02:40:53;;;;;;;2.08;1.17;;;;;;;20.71;100.00;95739.69;4968367;28;20075;-42
2022/10/15 02:43:21;;;;;;;2.92;1.20;;;;;;;20.70;100.00;95743.44;4966525;28;20116;-47
2022/10/15 02:45:50;;;;;;;3.30;1.27;;;;;;;20.45;100.00;95736.28;4967831;28;20074;-43
2022/10/15 02:48:19;;;;;;;2.10;1.10;;;;;;;20.53;100.00;95736.00;4965923;28;20564;-41
2022/10/15 02:50:47;;;;;;;1.88;1.17;;;;;;;20.25;100.00;95736.50;4967550;28;20082;-43
2022/10/15 02:53:16;;;;;;;3.38;1.30;;;;;;;20.80;100.00;95728.44;4965995;28;20814;-46
2022/10/15 02:55:44;;;;;;;3.05;1.15;;;;;;;;;;4966898;28;20548;-41
2022/10/15 02:58:13;;;;;;;1.95;1.10;;;;;;;21.01;100.00;95719.09;4967073;28;20085;-44
2022/10/15 03:00:41;;;;;;;1.85;1.00;;;;;;;21.03;100.00;95719.69;4965863;28;20093;-41
2022/10/15 03:03:10;;;;;;;2.03;1.05;;;;;;;21.07;100.00;95723.53;4966010;28;20074;-42
2022/10/15 03:05:40;;;;;;;3.17;1.00;;;;;;;21.28;100.00;95719.53;4966430;28;20078;-51
2022/10/15 03:08:08;;;;;;;2.50;0.93;;;;;;;20.50;100.00;95727.56;4964920;28;20093;-40
2022/10/15 03:10:36;;;;;;;2.05;1.00;;;;;;;20.19;100.00;95725.88;4967302;28;20082;-41
2022/10/15 03:13:05;;;;;;;1.45;1.10;;;;;;;20.62;100.00;95725.81;4964151;28;20083;-45
2022/10/15 03:15:33;;;;;;;3.40;1.00;;;;;;;20.53;100.00;95729.84;4965280;28;20577;-46
2022/10/15 03:18:02;;;;;;;1.05;0.95;;;;;;;20.70;100.00;95725.50;4963997;28;20079;-41
2022/10/15 03:20:30;;;;;;;1.45;1.00;;;;;;;20.43;100.00;95727.66;4965923;28;20083;-43
2022/10/15 03:22:59;;;;;;;1.50;1.00;;;;;;;20.59;100.00;95724.41;4967986;28;20474;-42
2022/10/15 03:25:28;;;;;;;2.65;1.30;;;;;;;20.15;100.00;95723.63;4965690;28;20086;-45
2022/10/15 03:27:56;;;;;;;1.63;1.00;;;;;;;20.76;100.00;95732.63;4961080;28;20086;-43
2022/10/15 03:30:24;;;;;;;4.18;1.10;;;;;;;19.84;100.00;95723.75;4964049;28;20495;-43
2022/10/15 03:32:52;;;;;;;3.13;1.02;;;;;;;20.30;100.00;95722.44;4966478;28;20078;-43
2022/10/15 03:35:21;;;;;;;1.30;1.20;;;;;;;20.37;100.00;95720.50;4966166;28;20078;-40
2022/10/15 03:37:49;;;;;;;3.72;1.00;;;;;;;20.02;100.00;95729.13;4966253;28;20082;-42
2022/10/15 03:40:18;;;;;;;1.52;1.00;;;;;;;20.28;100.00;95725.34;4967016;28;20086;-41
2022/10/15 03:42:50;;;;;;;2.25;0.95;;;;;;;20.08;100.00;95717.53;4967538;28;20086;-46
2022/10/15 03:45:18;;;;;;;1.13;1.00;;;;;;;20.70;100.00;95716.66;4965427;28;20078;-44
2022/10/15 03:47:47;;;;;;;1.52;1.02;;;;;;;20.31;100.00;95719.56;4967804;28;20085;-46
2022/10/15 03:50:16;;;;;;;4.07;1.10;;;;;;;20.48;100.00;95722.47;4966053;28;20078;-45
2022/10/15 03:52:44;;;;;;;1.33;0.80;;;;;;;20.14;100.00;95722.00;4965973;28;20093;-41
2022/10/15 03:55:13;;;;;;;1.73;1.10;;;;;;;20.18;100.00;95724.25;4967715;28;20086;-48
2022/10/15 03:57:42;;;;;;;2.15;0.85;;;;;;;20.18;100.00;95719.72;4967661;28;20444;-41
2022/10/15 04:00:13;;;;;;;1.75;0.80;;;;;;;20.28;100.00;95721.88;4966647;28;20070;-43
2022/10/15 04:02:41;;;;;;;1.13;1.00;;;;;;;19.45;100.00;95723.06;4966389;28;20090;-41
2022/10/15 04:05:10;;;;;;;2.55;1.00;;;;;;;19.99;100.00;95728.75;4963464;28;20086;-41
2022/10/15 04:07:38;;;;;;;2.42;1.00;;;;;;;19.83;100.00;95714.13;4966875;28;20066;-40
2022/10/15 04:10:07;;;;;;;1.80;0.95;;;;;;;20.14;100.00;95727.38;4967222;28;20085;-47
2022/10/15 04:12:35;;;;;;;2.35;0.93;;;;;;;20.28;100.00;95714.66;4965999;28;20090;-41
2022/10/15 04:15:06;;;;;;;2.03;0.98;;;;;;;20.42;100.00;95728.69;4966535;28;20094;-40
2022/10/15 04:17:34;;;;;;;1.95;0.95;;;;;;;20.12;100.00;95724.09;4966526;28;20078;-42
2022/10/15 04:20:03;;;;;;;2.25;0.77;;;;;;;20.17;100.00;95725.31;4965706;28;20079;-40
2022/10/15 04:22:32;;;;;;;0.80;0.80;;;;;;;20.60;100.00;95719.84;4964832;28;20074;-45
2022/10/15 04:25:00;;;;;;;0.98;0.80;;;;;;;20.62;100.00;95715.91;4967596;28;20081;-43
2022/10/15 04:27:28;;;;;;;1.77;0.80;;;;;;;20.02;100.00;95714.94;4967231;28;20082;-42
2022/10/15 04:29:56;;;;;;;3.63;0.82;;;;;;;20.70;100.00;95711.28;4968097;28;20090;-42
2022/10/15 04:32:26;;;;;;;1.35;0.82;;;;;;;19.97;100.00;95720.16;4966359;28;20089;-43
2022/10/15 04:34:54;;;;;;;1.52;0.80;;;;;;;20.25;100.00;95706.25;4965551;28;20078;-44
2022/10/15 04:37:22;;;;;;;0.70;0.70;;;;;;;20.47;100.00;95722.66;4966260;28;20083;-41
2022/10/15 04:39:51;;;;;;;1.60;0.90;;;;;;;20.55;100.00;95711.69;4965733;28;20085;-42
2022/10/15 04:42:19;;;;;;;2.20;0.90;;;;;;;20.08;100.00;95714.88;4964628;28;20073;-41
2022/10/15 04:44:47;;;;;;;1.00;0.77;;;;;;;20.37;100.00;95709.78;4966606;28;20087;-40
2022/10/15 04:47:16;;;;;;;2.40;0.82;;;;;;;20.22;100.00;95709.38;4965839;28;20094;-40
2022/10/15 04:49:45;;;;;;;2.88;1.05;;;;;;;20.44;100.00;95713.25;4968654;28;20086;-40
2022/10/15 04:52:14;;;;;;;1.67;0.83;;;;;;;20.38;100.00;95714.13;4965531;28;20075;-43
2022/10/15 04:54:42;;;;;;;2.83;0.90;;;;;;;20.13;100.00;95711.50;4967555;28;20086;-42
2022/10/15 04:57:10;;;;;;;1.33;0.70;;;;;;;20.26;100.00;95713.22;4964051;28;20083;-44
2022/10/15 04:59:39;;;;;;;1.27;0.80;;;;;;;19.95;100.00;95712.31;4966649;28;20148;-42
2022/10/15 05:02:07;;;;;;;1.98;0.77;;;;;;;20.61;100.00;95713.44;4967104;28;20074;-41
2022/10/15 05:04:35;;;;;;;0.88;0.70;;;;;;;20.54;100.00;95712.72;4965451;28;20154;-43
2022/10/15 05:07:05;;;;;;;1.10;0.75;;;;;;;20.44;100.00;95713.25;4966326;28;20109;-44
2022/10/15 05:09:33;;;;;;;2.70;0.75;;;;;;;20.02;100.00;95722.97;4964674;28;20075;-44
2022/10/15 05:12:04;;;;;;;3.50;1.52;;;;;;;20.26;100.00;95713.22;4968376;28;20097;-43
2022/10/15 05:14:34;;;;;;;0.60;0.60;;;;;;;20.30;100.00;95711.75;4962850;28;20086;-47
2022/10/15 05:17:03;;;;;;;3.53;0.80;;;;;;;20.43;100.00;95716.94;4965652;28;20109;-50
2022/10/15 05:19:31;;;;;;;1.10;0.80;;;;;;;20.89;100.00;95707.53;4965150;28;20086;-44
2022/10/15 05:21:59;;;;;;;1.30;0.65;;;;;;;20.23;100.00;95711.00;4970017;28;20089;-44
2022/10/15 05:24:29;;;;;;;1.25;0.70;;;;;;;20.71;100.00;95707.56;4967390;28;20074;-44
2022/10/15 05:26:57;;;;;;;1.02;0.70;;;;;;;20.42;100.00;95726.03;4967336;28;20529;-42
2022/10/15 05:29:25;;;;;;;0.60;0.50;;;;;;;20.65;100.00;95719.16;4969259;28;20093;-44
2022/10/15 05:31:54;;;;;;;2.38;0.75;;;;;;;20.31;100.00;95721.44;4970141;28;20074;-42
2022/10/15 05:34:22;;;;;;;0.68;0.60;;;;;;;20.70;100.00;95722.81;4968438;28;20164;-42
2022/10/15 05:36:50;;;;;;;1.35;0.60;;;;;;;20.09;100.00;95726.38;4969566;28;20083;-42
2022/10/15 05:39:19;;;;;;;1.05;0.60;;;;;;;20.69;100.00;95734.59;4964582;28;20525;-42
2022/10/15 05:41:49;;;;;;;0.60;0.60;;;;;;;20.49;100.00;95734.78;4965980;28;20078;-42
2022/10/15 05:44:17;;;;;;;1.25;0.70;;;;;;;20.58;100.00;95746.88;4966363;28;20094;-41
2022/10/15 05:46:45;;;;;;;1.33;0.60;;;;;;;20.26;100.00;95734.66;4970599;28;20092;-39
2022/10/15 05:49:13;;;;;;;0.50;0.50;;;;;;;20.31;100.00;95737.50;4967175;28;20496;-44
2022/10/15 05:51:42;;;;;;;0.85;0.50;;;;;;;20.74;100.00;95747.28;4966732;28;20082;-39
2022/10/15 05:54:10;;;;;;;0.50;0.50;;;;;;;20.52;100.00;95745.09;4967791;28;20090;-41
2022/10/15 05:56:38;;;;;;;0.50;0.50;;;;;;;20.32;100.00;95750.66;4967660;28;20074;-43
2022/10/15 05:59:08;;;;;;;1.67;0.57;;;;;;;20.94;100.00;95761.25;4968566;28;20101;-42
2022/10/15 06:01:36;;;;;;;0.55;0.45;;;;;;;20.34;100.00;95761.16;4970982;28;20087;-40
2022/10/15 06:04:05;;;;;;;0.73;0.70;;;;;;;20.70;100.00;95754.97;4971178;28;20104;-45
2022/10/15 06:06:33;;;;;;;0.70;0.60;;;;;;;21.15;100.00;95759.13;4968112;28;20674;-43
2022/10/15 06:09:01;;;;;;;1.25;0.65;;;;;;;20.97;100.00;95765.34;4964028;28;20090;-41
2022/10/15 06:11:30;;;;;;;0.50;0.50;;;;;;;20.33;100.00;95764.84;4964355;28;20082;-39
2022/10/15 06:13:58;;;;;;;0.40;0.40;;;;;;;20.57;100.00;95771.19;4967889;28;20142;-39
2022/10/15 06:16:28;;;;;;;1.10;0.70;;;;;;;21.26;100.00;95764.50;4964278;28;20118;-41
2022/10/15 06:18:56;;;;;;;0.50;0.50;;;;;;;20.51;100.00;95774.78;4962670;28;20992;-42
2022/10/15 06:21:24;;;;;;;0.60;0.60;;;;;;;21.18;100.00;95774.75;4962573;28;20652;-40
2022/10/15 06:23:53;;;;;;;1.25;0.60;;;;;;;20.70;100.00;95783.63;4965740;28;20085;-41
2022/10/15 06:26:21;;;;;;;0.55;0.55;;;;;;;20.71;100.00;95779.91;4969175;28;20469;-42
2022/10/15 06:28:49;;;;;;;0.50;0.50;;;;;;;20.57;100.00;95796.13;4970255;28;20066;-40
2022/10/15 06:31:17;;;;;;;1.20;0.60;;;;;;;21.07;100.00;95793.25;4970110;28;20457;-42
2022/10/15 06:33:47;;;;;;;0.70;0.70;;;;;;;21.01;100.00;95796.81;4968313;28;20492;-39
2022/10/15 06:36:16;;;;;;;0.70;0.60;;;;;;;20.91;100.00;95807.28;4970800;28;20086;-40
2022/10/15 06:38:47;;;;;;;0.82;0.70;;;;;;;21.44;100.00;95795.88;4970859;28;20105;-40
2022/10/15 06:41:15;;;;;;;0.60;0.60;;;;;;;21.44;100.00;95798.56;4962761;28;20074;-46
2022/10/15 06:43:44;;;;;;;1.95;0.60;;;;;;;20.74;100.00;95811.59;4969053;28;20086;-42
2022/10/15 06:46:13;;;;;;;0.52;0.50;;;;;;;21.19;100.00;95814.72;4970894;28;20066;-41
2022/10/15 06:48:41;;;;;;;1.60;0.60;;;;;;;20.81;100.00;95823.88;4971072;28;20090;-38
2022/10/15 06:51:11;;;;;;;1.33;0.60;;;;;;;20.91;100.00;95823.34;4969703;28;20101;-44
2022/10/15 06:53:41;;;;;;;1.17;0.55;;;;;;;20.87;100.00;95832.88;4965362;28;20081;-42
2022/10/15 06:56:09;;;;;;;1.65;0.70;;;;;;;21.77;100.00;95829.41;4967859;28;20081;-43
2022/10/15 06:58:37;;;;;;;0.40;0.40;;;;;;;21.07;100.00;95835.34;4969925;28;20078;-40
2022/10/15 07:01:07;;;;;;;2.45;0.60;;;;;;;21.44;100.00;95843.31;4970833;28;20082;-40
2022/10/15 07:03:37;;;;;;;0.60;0.60;;;;;;;21.16;100.00;95847.34;4978681;28;20073;-39
2022/10/15 07:06:07;;;;;;;0.60;0.50;;;;;;;21.23;100.00;95856.16;4970633;28;20513;-41
2022/10/15 07:08:37;;;;;;;1.60;0.60;;;;;;;21.41;100.00;95852.66;4970425;28;20094;-41
2022/10/15 07:11:07;;;;;;;1.17;0.55;;;;;;;21.08;100.00;95864.59;4970416;28;20082;-39
2022/10/15 07:13:35;;;;;;;1.23;0.70;;;;;;;21.55;100.00;95854.09;4964694;28;20082;-40
2022/10/15 07:16:05;;;;;;;1.00;0.60;;;;;;;21.60;100.00;95864.13;4966104;28;20085;-40
2022/10/15 07:18:33;;;;;;;0.65;0.60;;;;;;;21.89;100.00;95870.53;4964460;28;20077;-40
2022/10/15 07:21:02;;;;;;;0.60;0.60;;;;;;;21.83;100.00;95868.75;4969576;28;20071;-42
2022/10/15 07:23:30;;;;;;;1.05;0.65;;;;;;;21.86;100.00;95868.31;4984896;28;20077;-41
2022/10/15 07:26:00;;;;;;;0.55;0.55;;;;;;;21.61;100.00;95876.53;4970319;28;20082;-43
2022/10/15 07:28:29;;;;;;;0.93;0.60;;;;;;;22.17;100.00;95877.16;4969811;28;20197;-46
2022/10/15 07:31:01;;;;;;;0.52;0.50;;;;;;;22.07;100.00;95883.06;4968608;28;20058;-40
2022/10/15 07:33:30;;;;;;;0.50;0.50;;;;;;;22.43;100.00;95879.38;4967921;28;20495;-41
2022/10/15 07:35:58;;;;;;;0.50;0.50;;;;;;;22.58;100.00;95878.09;4962632;28;20158;-42
2022/10/15 07:38:26;;;;;;;1.00;0.50;;;;;;;22.17;100.00;95885.19;4970342;28;20086;-41
2022/10/15 07:40:58;;;;;;;0.40;0.40;;;;;;;21.55;100.00;95880.94;4970199;28;20073;-43
2022/10/15 07:43:28;;;;;;;0.75;0.60;;;;;;;21.59;100.00;95891.22;4969923;28;20082;-42
2022/10/15 07:45:56;;;;;;;1.33;0.57;;;;;;;21.55;100.00;95893.53;4970668;28;20086;-44
2022/10/15 07:48:24;;;;;;;0.50;0.50;;;;;;;21.78;100.00;95900.81;4961932;28;20383;-40
2022/10/15 07:50:56;;;;;;;3.78;0.43;;;;;;;21.51;100.00;95901.22;4966652;28;20152;-42
2022/10/15 07:53:25;;;;;;;0.95;0.50;;;;;;;21.77;100.00;95905.38;4969106;28;20062;-43
2022/10/15 07:55:53;;;;;;;1.98;0.50;;;;;;;21.77;100.00;95908.06;4965941;28;20140;-43
2022/10/15 07:58:21;;;;;;;0.50;0.50;;;;;;;22.02;100.00;95899.88;4974404;28;20100;-49
2022/10/15 08:00:51;;;;;;;0.32;0.32;;;;;;;21.35;100.00;95917.13;4973630;28;20062;-42
2022/10/15 08:03:19;;;;;;;0.67;0.50;;;;;;;22.55;100.00;95916.19;4968746;28;20075;-44
2022/10/15 08:05:51;;;;;;;0.50;0.50;;;;;;;21.25;100.00;95915.75;4973224;28;20835;-41
2022/10/15 08:08:20;;;;;;;0.40;0.40;;;;;;;22.32;100.00;95914.28;4973982;28;20628;-43
2022/10/15 08:10:48;;;;;;;1.45;0.50;;;;;;;22.67;100.00;95912.44;4974423;28;20352;-42
2022/10/15 08:13:17;;;;;;;0.55;0.38;;;;;;;23.00;100.00;95910.22;4973561;28;20082;-39
2022/10/15 08:15:45;;;;;;;0.40;0.40;;;;;;;22.83;100.00;95918.16;4971383;28;20111;-44
2022/10/15 08:18:15;;;;;;;0.47;0.30;;;;;;;22.10;100.00;95914.00;4973360;28;20498;-42
2022/10/15 08:20:43;;;;;;;1.30;0.40;;;;;;;22.79;100.00;95923.19;4972659;28;20073;-42
2022/10/15 08:23:15;;;;;;;2.40;0.30;;;;;;;22.33;100.00;95932.03;4968333;28;20101;-43
2022/10/15 08:25:44;;;;;;;0.28;0.25;;;;;;;22.37;100.00;95920.63;4970450;28;20074;-42
2022/10/15 08:28:12;;;;;;;0.73;0.50;;;;;;;22.67;100.00;95936.63;4966747;28;20074;-41
2022/10/15 08:30:41;;;;;;;0.80;0.50;;;;;;;22.86;100.00;95940.03;4970347;28;20513;-41
2022/10/15 08:33:09;;;;;;;2.15;0.60;;;;;;;22.56;100.00;95950.06;4969532;28;20473;-41
2022/10/15 08:35:40;;;;;;;0.60;0.43;;;;;;;22.72;100.00;95944.81;4973587;28;20524;-40
2022/10/15 08:38:09;;;;;;;1.50;0.60;;;;;;;22.78;100.00;95955.66;4969805;28;20078;-47
2022/10/15 08:40:47;;;;;;;1.17;0.50;;;;;;;22.97;100.00;95967.97;4973057;28;20082;-41
2022/10/15 08:43:21;;;;;;;1.15;0.60;;;;;;;22.11;100.00;95964.78;4973230;28;20066;-42
2022/10/15 08:45:50;;;;;;;0.50;0.50;;;;;;;22.12;100.00;95976.34;4973246;28;20070;-41
2022/10/15 08:48:21;;;;;;;0.80;0.50;;;;;;;22.21;100.00;95980.38;4973059;28;20576;-45
2022/10/15 08:50:58;;;;;;;1.77;0.60;;;;;;;22.75;100.00;95976.59;4973377;28;20070;-40
2022/10/15 08:53:26;;;;;;;0.60;0.60;;;;;;;22.14;100.00;95983.13;4972028;28;20086;-46
2022/10/15 08:55:57;;;;;;;0.57;0.50;;;;;;;22.95;100.00;95981.69;4972315;28;20063;-44
2022/10/15 08:58:31;;;;;;;0.50;0.50;;;;;;;22.23;100.00;95983.66;4971338;28;20316;-46
2022/10/15 09:01:06;;;;;;;0.50;0.50;;;;;;;22.43;100.00;96000.28;4972715;28;20066;-43
2022/10/15 09:03:39;;;;;;;1.10;0.65;;;;;;;21.96;100.00;96000.13;4972698;28;20083;-49
2022/10/15 09:06:14;;;;;;;0.40;0.40;;;;;;;22.63;100.00;95993.78;4973426;28;20074;-42
2022/10/15 09:08:49;;;;;;;1.00;0.50;;;;;;;22.90;100.00;95986.88;4967111;28;20078;-43
2022/10/15 09:11:23;;;;;;;0.50;0.50;;;;;;;23.95;100.00;95987.81;4972510;28;20070;-40
2022/10/15 09:13:52;;;;;;;0.52;0.50;;;;;;;23.50;100.00;95995.75;4971201;28;20470;-41
2022/10/15 09:16:39;;;;;;;0.55;0.55;;;;;;;22.17;100.00;96014.13;4972279;28;20066;-41
2022/10/15 09:19:14;;;;;;;0.50;0.50;;;;;;;22.07;100.00;96003.88;4972097;28;20113;-43
2022/10/15 09:21:45;;;;;;;0.85;0.50;;;;;;;21.98;100.00;96021.34;4969796;28;20085;-44
2022/10/15 09:24:18;;;;;;;0.50;0.50;;;;;;;22.30;100.00;96013.94;4971135;28;20078;-39
2022/10/15 09:26:53;;;;;;;0.50;0.50;;;;;;;22.64;100.00;96015.06;4972397;28;20093;-42
2022/10/15 09:29:26;;;;;;;0.40;0.40;;;;;;;22.08;100.00;96010.06;4970021;28;20086;-47
2022/10/15 09:32:00;;;;;;;0.40;0.40;;;;;;;22.95;100.00;96018.47;4969223;28;20078;-41
2022/10/15 09:34:31;;;;;;;0.40;0.40;;;;;;;21.72;100.00;96017.97;4972481;28;20078;-41
2022/10/15 09:37:05;;;;;;;0.50;0.47;;;;;;;21.99;100.00;96021.16;4972016;28;20591;-46
2022/10/15 09:39:49;;;;;;;0.30;0.30;;;;;;;21.94;100.00;96015.63;4971330;28;20086;-43
2022/10/15 09:42:25;;;;;;;0.40;0.40;;;;;;;21.85;100.00;96005.41;4968790;28;20500;-41
2022/10/15 09:44:55;;;;;;;1.92;0.47;;;;;;;22.58;100.00;95997.16;4968498;28;20082;-41
2022/10/15 09:47:25;;;;;;;1.45;0.40;;;;;;;22.39;100.00;95999.09;4971030;28;20116;-43
2022/10/15 09:49:54;;;;;;;0.35;0.30;;;;;;;22.51;100.00;95991.91;4972184;28;20086;-43
2022/10/15 09:52:35;;;;;;;1.10;0.50;;;;;;;22.82;100.00;95991.81;4971046;28;20567;-44
2022/10/15 09:55:10;;;;;;;0.50;0.40;;;;;;;22.90;100.00;96000.34;4966049;28;20082;-41
2022/10/15 09:57:39;;;;;;;0.70;0.40;;;;;;;22.58;100.00;96005.22;4972017;28;20529;-42
2022/10/15 10:00:10;;;;;;;0.40;0.40;;;;;;;22.94;100.00;96009.59;4971248;28;20090;-41
2022/10/15 10:02:39;;;;;;;0.68;0.40;;;;;;;23.02;100.00;96011.16;4971705;28;20074;-41
2022/10/15 10:05:27;;;;;;;0.40;0.40;;;;;;;22.98;100.00;96023.41;4969352;28;20094;-44
2022/10/15 10:08:09;;;;;;;0.38;0.38;;;;;;;23.19;100.00;96022.84;4960159;28;20074;-46
2022/10/15 10:10:38;;;;;;;2.15;0.60;;;;;;;23.95;100.00;96011.22;4964852;28;20078;-41
2022/10/15 10:13:23;;;;;;;0.77;0.40;;;;;;;23.27;100.00;96010.06;4963557;28;20086;-44
2022/10/15 10:15:52;;;;;;;0.38;0.38;;;;;;;23.06;100.00;96014.19;4960991;28;20552;-47
2022/10/15 10:18:27;;;;;;;0.50;0.50;;;;;;;23.57;100.00;96016.13;4965958;28;20090;-45
2022/10/15 10:20:58;;;;;;;0.40;0.40;;;;;;;23.40;100.00;95997.19;4967789;28;20082;-51
2022/10/15 10:23:33;;;;;;;2.50;0.40;;;;;;;23.89;100.00;96019.22;4965959;28;20087;-43
2022/10/15 10:26:02;;;;;;;0.40;0.40;;;;;;;24.03;100.00;96018.94;4959758;28;20090;-43
2022/10/15 10:28:33;;;;;;;0.50;0.43;;;;;;;24.63;100.00;96019.22;4958968;28;20121;-43
2022/10/15 10:31:06;;;;;;;0.35;0.35;;;;;;;23.49;100.00;96021.84;4967446;28;20608;-43
2022/10/15 10:33:41;;;;;;;0.40;0.40;;;;;;;24.17;100.00;96022.97;4961758;28;20082;-40
2022/10/15 10:36:21;;;;;;;2.47;0.50;;;;;;;24.23;100.00;96024.69;4965735;28;20101;-44
2022/10/15 10:39:01;;;;;;;1.40;0.60;;;;;;;24.20;100.00;96025.19;4968432;28;20451;-45
2022/10/15 10:41:48;;;;;;;;;;;;;;;24.28;100.00;96029.34;4964646;28;20074;-44
2022/10/15 10:44:21;;;;;;;2.50;0.50;;;;;;;24.17;100.00;96028.34;4964540;28;20016;-44
2022/10/15 10:47:10;;;;;;;0.70;0.55;;;;;;;24.11;100.00;96037.38;4965534;28;20477;-44
2022/10/15 10:49:40;;;;;;;2.50;0.50;;;;;;;24.26;100.00;96028.75;4963543;28;20097;-44
2022/10/15 10:52:26;;;;;;;1.95;0.47;;;;;;;24.48;100.00;96028.94;4964106;28;20090;-46
2022/10/15 10:55:01;;;;;;;3.28;0.65;;;;;;;25.27;100.00;96013.50;4962442;28;20078;-47
2022/10/15 10:57:40;;;;;;;0.40;0.40;;;;;;;24.92;100.00;96026.44;4963177;28;20082;-43
2022/10/15 11:00:13;;;;;;;1.30;0.65;;;;;;;24.92;100.00;96016.47;4960371;28;20477;-46
2022/10/15 11:02:42;;;;;;;0.85;0.60;;;;;;;25.16;100.00;96000.13;4959969;28;20079;-43
2022/10/15 11:05:11;;;;;;;1.27;0.60;;;;;;;24.87;100.00;96013.66;4963279;28;20082;-45
2022/10/15 11:07:47;;;;;;;2.00;0.60;;;;;;;25.37;100.00;96020.94;4957155;28;20055;-47
2022/10/15 11:10:22;;;;;;;1.55;0.80;;;;;;;25.06;100.00;96014.25;4966563;28;20176;-45
2022/10/15 11:13:04;;;;;;;0.70;0.60;;;;;;;25.69;100.00;96020.25;4963558;28;20194;-41
2022/10/15 11:15:41;;;;;;;1.25;0.60;;;;;;;25.31;100.00;96016.50;4963446;28;20058;-42
2022/10/15 11:18:22;;;;;;;1.10;0.60;;;;;;;25.87;100.00;96013.75;4967907;28;20089;-48
2022/10/15 11:20:55;;;;;;;0.82;0.68;;;;;;;26.24;100.00;96014.69;4965821;28;20078;-43
2022/10/15 11:23:47;;;;;;;1.38;0.70;;;;;;;25.83;100.00;96021.53;4962148;28;20078;-45
2022/10/15 11:26:31;;;;;;;1.23;0.50;;;;;;;25.43;100.00;96003.75;4955582;28;20097;-49
2022/10/15 11:29:24;;;;;;;1.50;0.60;;;;;;;25.27;100.00;96010.78;4962570;28;20520;-43
2022/10/15 11:32:10;;;;;;;0.60;0.45;;;;;;;25.54;100.00;96010.09;4966349;28;20178;-45
2022/10/15 11:34:54;;;;;;;1.38;0.50;;;;;;;25.57;100.00;96021.19;4965746;28;20093;-50
2022/10/15 11:37:33;;;;;;;0.98;0.50;;;;;;;25.50;100.00;96008.97;4963785;28;20456;-49
2022/10/15 11:40:14;;;;;;;0.43;0.43;;;;;;;24.58;100.00;96007.53;4963171;28;20086;-48
2022/10/15 11:42:54;;;;;;;1.02;0.60;;;;;;;25.28;100.00;96009.72;4967153;28;20092;-47
2022/10/15 11:45:43;;;;;;;3.60;0.60;;;;;;;24.95;100.00;96001.63;4957815;28;20510;-46